sensor_id;sensor_type;location;lat;lon;timestamp;pressure;altitude;pressure_sealevel;temperature;humidity
33191;BME280;19554;42.652;23.364;2022-08-19T00:00:07;94373.28;;;25.81;42.78
33191;BME280;19554;42.652;23.364;2022-08-19T00:02:33;94373.66;;;25.75;43.06
33191;BME280;19554;42.652;23.364;2022-08-19T00:04:59;94332.25;;;25.45;43.26
33191;BME280;19554;42.652;23.364;2022-08-19T00:07:24;94365.81;;;25.70;43.58
33191;BME280;19554;42.652;23.364;2022-08-19T00:09:50;94379.88;;;25.65;43.37
33191;BME280;19554;42.652;23.364;2022-08-19T00:12:15;94382.22;;;25.60;43.78
33191;BME280;19554;42.652;23.364;2022-08-19T00:14:41;94332.59;;;25.29;43.74
33191;BME280;19554;42.652;23.364;2022-08-19T00:17:07;94370.50;;;25.45;43.69
33191;BME280;19554;42.652;23.364;2022-08-19T00:19:34;94369.72;;;25.37;44.15
33191;BME280;19554;42.652;23.364;2022-08-19T00:22:00;94396.19;;;25.22;44.27
33191;BME280;19554;42.652;23.364;2022-08-19T00:24:27;94386.84;;;25.16;44.41
33191;BME280;19554;42.652;23.364;2022-08-19T00:26:54;94388.34;;;25.10;44.66
33191;BME280;19554;42.652;23.364;2022-08-19T00:29:22;94378.19;;;25.07;44.73
33191;BME280;19554;42.652;23.364;2022-08-19T00:31:48;94389.94;;;25.11;44.62
33191;BME280;19554;42.652;23.364;2022-08-19T00:34:14;94392.66;;;25.15;44.99
33191;BME280;19554;42.652;23.364;2022-08-19T00:36:41;94395.75;;;25.10;44.66
33191;BME280;19554;42.652;23.364;2022-08-19T00:39:07;94387.94;;;25.04;44.91
33191;BME280;19554;42.652;23.364;2022-08-19T00:41:33;94379.72;;;25.01;45.28
33191;BME280;19554;42.652;23.364;2022-08-19T00:46:34;94374.66;;;24.96;45.16
33191;BME280;19554;42.652;23.364;2022-08-19T00:49:11;94358.97;;;24.78;45.30
33191;BME280;19554;42.652;23.364;2022-08-19T00:51:41;94379.69;;;24.94;45.42
33191;BME280;19554;42.652;23.364;2022-08-19T00:54:08;94374.97;;;24.80;45.30
33191;BME280;19554;42.652;23.364;2022-08-19T00:56:34;94378.06;;;24.78;45.68
33191;BME280;19554;42.652;23.364;2022-08-19T00:59:02;94381.94;;;24.70;45.45
33191;BME280;19554;42.652;23.364;2022-08-19T01:01:27;94376.44;;;24.63;45.63
33191;BME280;19554;42.652;23.364;2022-08-19T01:03:53;94380.31;;;24.55;45.97
33191;BME280;19554;42.652;23.364;2022-08-19T01:06:18;94378.69;;;24.43;46.40
33191;BME280;19554;42.652;23.364;2022-08-19T01:08:44;94340.28;;;24.11;46.37
33191;BME280;19554;42.652;23.364;2022-08-19T01:11:11;94384.91;;;24.44;46.40
33191;BME280;19554;42.652;23.364;2022-08-19T01:13:37;94386.50;;;24.45;46.32
33191;BME280;19554;42.652;23.364;2022-08-19T01:16:08;94383.78;;;24.45;46.27
33191;BME280;19554;42.652;23.364;2022-08-19T01:18:40;94346.59;;;24.22;46.21
33191;BME280;19554;42.652;23.364;2022-08-19T01:21:32;94379.50;;;24.51;46.34
33191;BME280;19554;42.652;23.364;2022-08-19T01:23:59;94373.28;;;24.54;46.26
33191;BME280;19554;42.652;23.364;2022-08-19T01:26:26;94374.44;;;24.53;45.96
33191;BME280;19554;42.652;23.364;2022-08-19T01:28:54;94373.28;;;24.54;46.13
33191;BME280;19554;42.652;23.364;2022-08-19T01:31:24;94373.22;;;24.43;46.25
33191;BME280;19554;42.652;23.364;2022-08-19T01:33:52;94371.97;;;24.33;46.56
33191;BME280;19554;42.652;23.364;2022-08-19T01:38:55;94382.91;;;24.37;46.35
33191;BME280;19554;42.652;23.364;2022-08-19T01:41:21;94380.97;;;24.38;46.68
33191;BME280;19554;42.652;23.364;2022-08-19T01:43:49;94374.34;;;24.35;46.56
33191;BME280;19554;42.652;23.364;2022-08-19T01:46:15;94380.22;;;24.41;46.80
33191;BME280;19554;42.652;23.364;2022-08-19T01:48:42;94356.75;;;24.25;46.34
33191;BME280;19554;42.652;23.364;2022-08-19T01:51:09;94387.22;;;24.38;46.66
33191;BME280;19554;42.652;23.364;2022-08-19T01:53:35;94384.06;;;24.32;46.99
33191;BME280;19554;42.652;23.364;2022-08-19T01:56:01;94379.00;;;24.31;46.90
33191;BME280;19554;42.652;23.364;2022-08-19T01:58:32;94370.78;;;24.27;47.12
33191;BME280;19554;42.652;23.364;2022-08-19T02:01:01;94378.22;;;24.34;47.22
33191;BME280;19554;42.652;23.364;2022-08-19T02:03:27;94378.59;;;24.32;46.99
33191;BME280;19554;42.652;23.364;2022-08-19T02:05:59;94309.66;;;23.73;46.77
33191;BME280;19554;42.652;23.364;2022-08-19T02:08:26;94333.06;;;23.78;47.19
33191;BME280;19554;42.652;23.364;2022-08-19T02:10:52;94379.22;;;24.08;47.35
33191;BME280;19554;42.652;23.364;2022-08-19T02:13:18;94379.97;;;24.05;47.51
33191;BME280;19554;42.652;23.364;2022-08-19T02:15:43;94379.19;;;24.04;47.40
33191;BME280;19554;42.652;23.364;2022-08-19T02:18:09;94320.06;;;23.64;47.43
33191;BME280;19554;42.652;23.364;2022-08-19T02:20:35;94370.19;;;23.93;47.66
33191;BME280;19554;42.652;23.364;2022-08-19T02:23:01;94380.72;;;23.98;47.63
33191;BME280;19554;42.652;23.364;2022-08-19T02:25:27;94379.13;;;23.94;47.63
33191;BME280;19554;42.652;23.364;2022-08-19T02:27:53;94357.97;;;23.76;47.59
33191;BME280;19554;42.652;23.364;2022-08-19T02:30:19;94386.84;;;23.84;47.65
33191;BME280;19554;42.652;23.364;2022-08-19T02:32:45;94337.47;;;23.49;47.86
33191;BME280;19554;42.652;23.364;2022-08-19T02:35:13;94377.34;;;23.68;47.97
33191;BME280;19554;42.652;23.364;2022-08-19T02:37:39;94386.75;;;23.74;47.98
33191;BME280;19554;42.652;23.364;2022-08-19T02:40:23;94389.09;;;23.75;48.24
33191;BME280;19554;42.652;23.364;2022-08-19T02:42:49;94356.19;;;23.54;48.13
33191;BME280;19554;42.652;23.364;2022-08-19T02:45:14;94393.03;;;23.81;47.87
33191;BME280;19554;42.652;23.364;2022-08-19T02:47:40;94332.72;;;23.38;47.84
33191;BME280;19554;42.652;23.364;2022-08-19T02:50:06;94390.25;;;23.74;47.93
33191;BME280;19554;42.652;23.364;2022-08-19T02:52:33;94396.94;;;23.80;48.10
33191;BME280;19554;42.652;23.364;2022-08-19T02:54:59;94295.13;;;23.14;48.05
33191;BME280;19554;42.652;23.364;2022-08-19T02:57:25;94399.25;;;23.78;47.99
33191;BME280;19554;42.652;23.364;2022-08-19T02:59:51;94398.44;;;23.74;48.02
33191;BME280;19554;42.652;23.364;2022-08-19T03:02:17;94336.53;;;23.30;48.09
33191;BME280;19554;42.652;23.364;2022-08-19T03:04:42;94396.84;;;23.70;48.21
33191;BME280;19554;42.652;23.364;2022-08-19T03:07:09;94399.09;;;23.64;48.28
33191;BME280;19554;42.652;23.364;2022-08-19T03:09:38;94401.34;;;23.55;48.70
33191;BME280;19554;42.652;23.364;2022-08-19T03:12:04;94400.53;;;23.51;48.38
33191;BME280;19554;42.652;23.364;2022-08-19T03:14:31;94382.09;;;23.37;48.79
33191;BME280;19554;42.652;23.364;2022-08-19T03:16:56;94372.28;;;23.25;48.97
33191;BME280;19554;42.652;23.364;2022-08-19T03:19:23;94344.03;;;23.03;48.76
33191;BME280;19554;42.652;23.364;2022-08-19T03:21:49;94389.47;;;23.33;49.01
33191;BME280;19554;42.652;23.364;2022-08-19T03:24:15;94313.06;;;22.81;48.83
33191;BME280;19554;42.652;23.364;2022-08-19T03:26:44;94380.44;;;23.25;48.51
33191;BME280;19554;42.652;23.364;2022-08-19T03:29:10;94384.72;;;23.26;48.53
33191;BME280;19554;42.652;23.364;2022-08-19T03:31:37;94386.28;;;23.27;48.84
33191;BME280;19554;42.652;23.364;2022-08-19T03:34:03;94392.47;;;23.24;48.59
33191;BME280;19554;42.652;23.364;2022-08-19T03:36:28;94392.47;;;23.24;48.91
33191;BME280;19554;42.652;23.364;2022-08-19T03:38:59;94388.63;;;23.25;48.72
33191;BME280;19554;42.652;23.364;2022-08-19T03:41:35;94384.63;;;23.15;48.75
33191;BME280;19554;42.652;23.364;2022-08-19T03:44:01;94398.66;;;23.21;49.14
33191;BME280;19554;42.652;23.364;2022-08-19T03:46:30;94404.88;;;23.18;49.18
33191;BME280;19554;42.652;23.364;2022-08-19T03:48:58;94400.88;;;23.08;49.42
33191;BME280;19554;42.652;23.364;2022-08-19T03:51:26;94413.72;;;23.08;49.41
33191;BME280;19554;42.652;23.364;2022-08-19T03:53:53;94411.81;;;23.12;49.46
33191;BME280;19554;42.652;23.364;2022-08-19T03:56:19;94418.13;;;23.20;49.30
33191;BME280;19554;42.652;23.364;2022-08-19T03:58:45;94419.81;;;23.35;48.98
33191;BME280;19554;42.652;23.364;2022-08-19T04:01:14;94411.44;;;23.51;48.47
33191;BME280;19554;42.652;23.364;2022-08-19T04:03:47;94422.97;;;23.74;48.11
33191;BME280;19554;42.652;23.364;2022-08-19T04:06:25;94429.72;;;23.91;47.32
33191;BME280;19554;42.652;23.364;2022-08-19T04:08:52;94429.09;;;24.08;46.64
33191;BME280;19554;42.652;23.364;2022-08-19T04:11:26;94428.00;;;24.20;46.30
33191;BME280;19554;42.652;23.364;2022-08-19T04:13:52;94428.88;;;24.31;46.10
33191;BME280;19554;42.652;23.364;2022-08-19T04:16:20;94425.47;;;24.42;45.85
33191;BME280;19554;42.652;23.364;2022-08-19T04:18:47;94429.81;;;24.53;45.05
33191;BME280;19554;42.652;23.364;2022-08-19T04:21:23;94433.38;;;24.65;45.17
33191;BME280;19554;42.652;23.364;2022-08-19T04:23:48;94429.53;;;24.73;45.32
33191;BME280;19554;42.652;23.364;2022-08-19T04:26:21;94442.50;;;24.94;44.90
33191;BME280;19554;42.652;23.364;2022-08-19T04:28:47;94439.50;;;25.13;44.96
33191;BME280;19554;42.652;23.364;2022-08-19T04:31:24;94440.31;;;25.24;44.42
33191;BME280;19554;42.652;23.364;2022-08-19T04:33:52;94437.63;;;25.39;44.00
33191;BME280;19554;42.652;23.364;2022-08-19T04:36:21;94437.66;;;25.53;44.03
33191;BME280;19554;42.652;23.364;2022-08-19T04:38:48;94430.28;;;25.64;43.72
33191;BME280;19554;42.652;23.364;2022-08-19T04:41:14;94426.78;;;25.78;43.20
33191;BME280;19554;42.652;23.364;2022-08-19T04:43:58;94434.53;;;25.51;44.00
33191;BME280;19554;42.652;23.364;2022-08-19T04:46:24;94414.22;;;25.52;44.14
33191;BME280;19554;42.652;23.364;2022-08-19T04:48:49;94431.09;;;25.93;43.59
33191;BME280;19554;42.652;23.364;2022-08-19T04:51:14;94424.47;;;26.19;43.43
33191;BME280;19554;42.652;23.364;2022-08-19T04:53:41;94422.47;;;26.38;42.54
33191;BME280;19554;42.652;23.364;2022-08-19T04:56:13;94428.38;;;26.51;42.67
33191;BME280;19554;42.652;23.364;2022-08-19T04:58:41;94429.13;;;26.62;42.25
33191;BME280;19554;42.652;23.364;2022-08-19T05:01:11;94419.72;;;26.74;41.86
33191;BME280;19554;42.652;23.364;2022-08-19T05:03:36;94427.09;;;26.91;42.18
33191;BME280;19554;42.652;23.364;2022-08-19T05:06:09;94410.38;;;26.24;43.68
33191;BME280;19554;42.652;23.364;2022-08-19T05:08:37;94439.28;;;26.65;42.52
33191;BME280;19554;42.652;23.364;2022-08-19T05:11:14;94437.72;;;26.60;42.66
33191;BME280;19554;42.652;23.364;2022-08-19T05:13:42;94441.56;;;26.91;41.66
33191;BME280;19554;42.652;23.364;2022-08-19T05:16:09;94429.88;;;26.69;41.62
33191;BME280;19554;42.652;23.364;2022-08-19T05:18:35;94437.69;;;26.46;42.71
33191;BME280;19554;42.652;23.364;2022-08-19T05:21:19;94436.94;;;26.45;43.42
33191;BME280;19554;42.652;23.364;2022-08-19T05:24:05;94419.28;;;26.79;41.70
33191;BME280;19554;42.652;23.364;2022-08-19T05:26:37;94423.59;;;26.73;42.31
33191;BME280;19554;42.652;23.364;2022-08-19T05:29:04;94402.34;;;27.09;40.93
33191;BME280;19554;42.652;23.364;2022-08-19T05:31:30;94428.63;;;26.92;41.31
33191;BME280;19554;42.652;23.364;2022-08-19T05:33:56;94409.53;;;26.78;41.34
33191;BME280;19554;42.652;23.364;2022-08-19T05:36:25;94436.31;;;27.36;40.96
33191;BME280;19554;42.652;23.364;2022-08-19T05:38:50;94440.53;;;27.48;40.82
33191;BME280;19554;42.652;23.364;2022-08-19T05:41:19;94444.81;;;27.56;40.65
33191;BME280;19554;42.652;23.364;2022-08-19T05:43:45;94442.88;;;27.53;41.24
33191;BME280;19554;42.652;23.364;2022-08-19T05:46:17;94442.94;;;27.46;41.47
33191;BME280;19554;42.652;23.364;2022-08-19T05:48:43;94453.03;;;27.60;41.21
33191;BME280;19554;42.652;23.364;2022-08-19T05:51:09;94445.16;;;27.65;40.41
33191;BME280;19554;42.652;23.364;2022-08-19T05:53:35;94405.47;;;27.14;40.72
33191;BME280;19554;42.652;23.364;2022-08-19T05:56:09;94441.81;;;27.33;40.93
33191;BME280;19554;42.652;23.364;2022-08-19T05:58:36;94444.47;;;27.47;40.73
33191;BME280;19554;42.652;23.364;2022-08-19T06:01:02;94446.00;;;27.55;40.41
33191;BME280;19554;42.652;23.364;2022-08-19T06:03:32;94442.78;;;27.68;40.83
33191;BME280;19554;42.652;23.364;2022-08-19T06:05:58;94447.00;;;27.90;40.31
33191;BME280;19554;42.652;23.364;2022-08-19T06:08:25;94402.66;;;27.95;39.33
33191;BME280;19554;42.652;23.364;2022-08-19T06:10:50;94439.56;;;28.39;38.87
33191;BME280;19554;42.652;23.364;2022-08-19T06:13:15;94446.44;;;28.58;38.60
33191;BME280;19554;42.652;23.364;2022-08-19T06:15:41;94448.31;;;28.68;38.25
33191;BME280;19554;42.652;23.364;2022-08-19T06:18:09;94446.47;;;28.99;37.82
33191;BME280;19554;42.652;23.364;2022-08-19T06:20:34;94447.03;;;29.18;36.90
33191;BME280;19554;42.652;23.364;2022-08-19T06:23:00;94443.44;;;29.21;36.97
33191;BME280;19554;42.652;23.364;2022-08-19T06:25:25;94419.72;;;29.03;36.52
33191;BME280;19554;42.652;23.364;2022-08-19T06:27:50;94444.66;;;29.20;36.61
33191;BME280;19554;42.652;23.364;2022-08-19T06:30:16;94440.69;;;29.21;36.69
33191;BME280;19554;42.652;23.364;2022-08-19T06:32:41;94438.97;;;29.34;36.80
33191;BME280;19554;42.652;23.364;2022-08-19T06:35:07;94441.78;;;29.31;36.68
33191;BME280;19554;42.652;23.364;2022-08-19T06:37:33;94443.69;;;29.34;36.59
33191;BME280;19554;42.652;23.364;2022-08-19T06:39:58;94402.50;;;28.99;36.84
33191;BME280;19554;42.652;23.364;2022-08-19T06:42:24;94442.94;;;29.29;37.21
33191;BME280;19554;42.652;23.364;2022-08-19T06:44:49;94446.19;;;29.21;37.53
33191;BME280;19554;42.652;23.364;2022-08-19T06:47:18;94450.50;;;29.52;37.59
33191;BME280;19554;42.652;23.364;2022-08-19T06:49:44;94443.91;;;29.77;37.45
33191;BME280;19554;42.652;23.364;2022-08-19T06:52:10;94449.69;;;29.86;37.16
33191;BME280;19554;42.652;23.364;2022-08-19T06:54:40;94438.19;;;29.91;37.06
33191;BME280;19554;42.652;23.364;2022-08-19T06:57:07;94448.84;;;29.89;37.06
33191;BME280;19554;42.652;23.364;2022-08-19T06:59:34;94446.91;;;29.59;37.39
33191;BME280;19554;42.652;23.364;2022-08-19T07:02:02;94393.56;;;29.22;37.44
33191;BME280;19554;42.652;23.364;2022-08-19T07:04:31;94449.69;;;29.56;37.36
33191;BME280;19554;42.652;23.364;2022-08-19T07:07:03;94461.38;;;29.63;37.61
33191;BME280;19554;42.652;23.364;2022-08-19T07:09:31;94430.41;;;29.86;37.24
33191;BME280;19554;42.652;23.364;2022-08-19T07:11:57;94450.38;;;30.44;36.71
33191;BME280;19554;42.652;23.364;2022-08-19T07:14:25;94460.53;;;30.71;35.76
33191;BME280;19554;42.652;23.364;2022-08-19T07:16:52;94448.69;;;30.74;34.92
33191;BME280;19554;42.652;23.364;2022-08-19T07:19:20;94430.97;;;30.52;35.65
33191;BME280;19554;42.652;23.364;2022-08-19T07:21:48;94457.41;;;30.45;35.60
33191;BME280;19554;42.652;23.364;2022-08-19T07:24:15;94453.81;;;30.25;36.50
33191;BME280;19554;42.652;23.364;2022-08-19T07:26:42;94452.34;;;30.44;35.79
33191;BME280;19554;42.652;23.364;2022-08-19T07:29:09;94453.63;;;30.59;35.22
33191;BME280;19554;42.652;23.364;2022-08-19T07:31:34;94444.78;;;30.72;35.17
33191;BME280;19554;42.652;23.364;2022-08-19T07:34:03;94455.44;;;30.69;34.69
33191;BME280;19554;42.652;23.364;2022-08-19T07:36:32;94453.72;;;30.79;34.64
33191;BME280;19554;42.652;23.364;2022-08-19T07:39:00;94453.44;;;30.93;34.32
33191;BME280;19554;42.652;23.364;2022-08-19T07:41:27;94453.63;;;31.26;33.47
33191;BME280;19554;42.652;23.364;2022-08-19T07:44:00;94447.81;;;31.41;33.05
33191;BME280;19554;42.652;23.364;2022-08-19T07:46:33;94427.28;;;31.61;32.98
33191;BME280;19554;42.652;23.364;2022-08-19T07:48:58;94443.50;;;31.96;32.18
33191;BME280;19554;42.652;23.364;2022-08-19T07:51:26;94447.47;;;31.95;32.01
33191;BME280;19554;42.652;23.364;2022-08-19T07:53:52;94430.06;;;31.42;33.27
33191;BME280;19554;42.652;23.364;2022-08-19T07:56:19;94452.72;;;31.53;32.88
33191;BME280;19554;42.652;23.364;2022-08-19T07:58:46;94448.75;;;31.34;33.30
33191;BME280;19554;42.652;23.364;2022-08-19T08:01:16;94450.00;;;31.29;33.40
33191;BME280;19554;42.652;23.364;2022-08-19T08:03:42;94430.59;;;31.36;33.04
33191;BME280;19554;42.652;23.364;2022-08-19T08:06:27;94427.41;;;31.74;32.65
33191;BME280;19554;42.652;23.364;2022-08-19T08:09:12;94448.53;;;32.01;32.04
33191;BME280;19554;42.652;23.364;2022-08-19T08:11:39;94448.19;;;32.15;31.93
33191;BME280;19554;42.652;23.364;2022-08-19T08:14:05;94397.88;;;32.07;31.63
33191;BME280;19554;42.652;23.364;2022-08-19T08:16:37;94448.50;;;32.33;31.61
33191;BME280;19554;42.652;23.364;2022-08-19T08:19:04;94432.81;;;32.30;31.63
33191;BME280;19554;42.652;23.364;2022-08-19T08:21:33;94441.19;;;32.27;31.81
33191;BME280;19554;42.652;23.364;2022-08-19T08:23:59;94439.13;;;32.31;31.33
33191;BME280;19554;42.652;23.364;2022-08-19T08:26:24;94431.28;;;32.46;31.33
33191;BME280;19554;42.652;23.364;2022-08-19T08:28:51;94432.97;;;32.40;31.44
33191;BME280;19554;42.652;23.364;2022-08-19T08:31:16;94407.97;;;32.14;31.94
33191;BME280;19554;42.652;23.364;2022-08-19T08:33:44;94410.03;;;32.10;32.18
33191;BME280;19554;42.652;23.364;2022-08-19T08:36:11;94420.56;;;32.15;31.92
33191;BME280;19554;42.652;23.364;2022-08-19T08:38:39;94439.38;;;32.20;31.53
33191;BME280;19554;42.652;23.364;2022-08-19T08:43:57;94428.00;;;32.18;31.56
33191;BME280;19554;42.652;23.364;2022-08-19T08:52:12;94410.69;;;32.30;31.16
33191;BME280;19554;42.652;23.364;2022-08-19T08:54:40;94405.88;;;32.51;29.99
33191;BME280;19554;42.652;23.364;2022-08-19T08:59:48;94381.72;;;32.55;27.63
33191;BME280;19554;42.652;23.364;2022-08-19T09:02:17;94407.03;;;32.83;28.19
33191;BME280;19554;42.652;23.364;2022-08-19T09:04:43;94409.06;;;32.95;28.85
33191;BME280;19554;42.652;23.364;2022-08-19T09:07:45;94404.72;;;33.10;27.85
33191;BME280;19554;42.652;23.364;2022-08-19T09:15:41;94406.31;;;33.24;28.07
33191;BME280;19554;42.652;23.364;2022-08-19T09:18:08;94351.75;;;32.83;27.58
33191;BME280;19554;42.652;23.364;2022-08-19T09:20:34;94390.13;;;33.22;26.34
33191;BME280;19554;42.652;23.364;2022-08-19T09:22:59;94392.16;;;33.35;26.71
33191;BME280;19554;42.652;23.364;2022-08-19T09:25:25;94396.06;;;33.50;26.06
33191;BME280;19554;42.652;23.364;2022-08-19T09:27:52;94386.00;;;33.56;25.81
33191;BME280;19554;42.652;23.364;2022-08-19T09:30:21;94385.03;;;33.63;25.21
33191;BME280;19554;42.652;23.364;2022-08-19T09:32:49;94391.53;;;33.56;24.50
33191;BME280;19554;42.652;23.364;2022-08-19T09:35:15;94377.56;;;33.47;23.84
33191;BME280;19554;42.652;23.364;2022-08-19T09:37:41;94384.00;;;33.44;23.59
33191;BME280;19554;42.652;23.364;2022-08-19T09:40:08;94329.28;;;33.22;23.97
33191;BME280;19554;42.652;23.364;2022-08-19T09:42:34;94387.06;;;33.46;24.30
33191;BME280;19554;42.652;23.364;2022-08-19T09:45:00;94382.63;;;33.36;24.39
33191;BME280;19554;42.652;23.364;2022-08-19T09:47:25;94382.00;;;33.44;23.78
33191;BME280;19554;42.652;23.364;2022-08-19T09:49:51;94377.34;;;33.41;24.32
33191;BME280;19554;42.652;23.364;2022-08-19T09:52:16;94379.66;;;33.43;23.45
33191;BME280;19554;42.652;23.364;2022-08-19T09:54:43;94377.75;;;33.40;22.96
33191;BME280;19554;42.652;23.364;2022-08-19T09:57:08;94373.13;;;33.37;23.03
33191;BME280;19554;42.652;23.364;2022-08-19T09:59:34;94379.06;;;33.22;23.85
33191;BME280;19554;42.652;23.364;2022-08-19T10:01:59;94365.91;;;33.14;22.97
33191;BME280;19554;42.652;23.364;2022-08-19T10:04:25;94359.25;;;33.11;23.13
33191;BME280;19554;42.652;23.364;2022-08-19T10:07:11;94369.03;;;33.41;22.80
33191;BME280;19554;42.652;23.364;2022-08-19T10:09:36;94360.78;;;33.54;23.02
33191;BME280;19554;42.652;23.364;2022-08-19T10:12:03;94354.81;;;33.68;23.00
33191;BME280;19554;42.652;23.364;2022-08-19T10:14:30;94328.22;;;33.58;23.45
33191;BME280;19554;42.652;23.364;2022-08-19T10:16:56;94357.88;;;33.70;23.45
33191;BME280;19554;42.652;23.364;2022-08-19T10:19:22;94359.00;;;33.86;23.44
33191;BME280;19554;42.652;23.364;2022-08-19T10:21:48;94348.56;;;33.77;23.42
33191;BME280;19554;42.652;23.364;2022-08-19T10:24:13;94352.56;;;33.89;23.57
33191;BME280;19554;42.652;23.364;2022-08-19T10:26:40;94341.50;;;33.89;23.32
33191;BME280;19554;42.652;23.364;2022-08-19T10:29:11;94350.69;;;33.99;23.13
33191;BME280;19554;42.652;23.364;2022-08-19T10:31:37;94348.50;;;33.55;23.66
33191;BME280;19554;42.652;23.364;2022-08-19T10:34:03;94340.31;;;33.64;23.17
33191;BME280;19554;42.652;23.364;2022-08-19T10:36:32;94298.97;;;33.32;23.80
33191;BME280;19554;42.652;23.364;2022-08-19T10:39:00;94332.19;;;33.57;23.90
33191;BME280;19554;42.652;23.364;2022-08-19T10:41:29;94338.03;;;33.46;24.36
33191;BME280;19554;42.652;23.364;2022-08-19T10:43:57;94330.75;;;33.27;24.20
33191;BME280;19554;42.652;23.364;2022-08-19T10:46:26;94322.63;;;33.07;24.41
33191;BME280;19554;42.652;23.364;2022-08-19T10:48:52;94327.06;;;33.17;24.24
33191;BME280;19554;42.652;23.364;2022-08-19T10:51:18;94325.84;;;33.18;23.94
33191;BME280;19554;42.652;23.364;2022-08-19T10:54:03;94326.09;;;33.24;24.04
33191;BME280;19554;42.652;23.364;2022-08-19T10:56:29;94295.38;;;32.93;24.10
33191;BME280;19554;42.652;23.364;2022-08-19T10:59:14;94336.66;;;33.13;24.17
33191;BME280;19554;42.652;23.364;2022-08-19T11:01:42;94326.81;;;32.99;24.37
33191;BME280;19554;42.652;23.364;2022-08-19T11:04:08;94275.81;;;32.58;24.30
33191;BME280;19554;42.652;23.364;2022-08-19T11:06:36;94326.41;;;33.13;24.35
33191;BME280;19554;42.652;23.364;2022-08-19T11:09:04;94318.22;;;33.22;24.21
33191;BME280;19554;42.652;23.364;2022-08-19T11:11:30;94321.44;;;33.21;23.81
33191;BME280;19554;42.652;23.364;2022-08-19T11:13:58;94312.97;;;32.99;23.78
33191;BME280;19554;42.652;23.364;2022-08-19T11:16:25;94295.38;;;32.93;23.90
33191;BME280;19554;42.652;23.364;2022-08-19T11:18:54;94319.66;;;33.14;24.02
33191;BME280;19554;42.652;23.364;2022-08-19T11:21:32;94234.28;;;32.74;24.18
33191;BME280;19554;42.652;23.364;2022-08-19T11:24:05;94306.03;;;33.33;24.43
33191;BME280;19554;42.652;23.364;2022-08-19T11:26:32;94304.28;;;33.13;24.59
33191;BME280;19554;42.652;23.364;2022-08-19T11:28:59;94289.16;;;32.89;24.67
33191;BME280;19554;42.652;23.364;2022-08-19T11:31:30;94308.91;;;32.74;24.89
33191;BME280;19554;42.652;23.364;2022-08-19T11:34:00;94266.75;;;32.28;25.32
33191;BME280;19554;42.652;23.364;2022-08-19T11:36:27;94297.25;;;32.54;24.99
33191;BME280;19554;42.652;23.364;2022-08-19T11:38:53;94301.13;;;32.56;25.26
33191;BME280;19554;42.652;23.364;2022-08-19T11:41:21;94297.25;;;32.54;25.73
33191;BME280;19554;42.652;23.364;2022-08-19T11:43:49;94296.63;;;32.63;25.15
33191;BME280;19554;42.652;23.364;2022-08-19T11:46:15;94293.34;;;32.80;24.80
33191;BME280;19554;42.652;23.364;2022-08-19T11:48:41;94298.88;;;32.80;25.05
33191;BME280;19554;42.652;23.364;2022-08-19T11:51:11;94292.25;;;32.91;25.07
33191;BME280;19554;42.652;23.364;2022-08-19T11:53:38;94294.53;;;32.96;24.77
33191;BME280;19554;42.652;23.364;2022-08-19T11:56:04;94292.22;;;33.07;24.94
33191;BME280;19554;42.652;23.364;2022-08-19T11:58:30;94285.66;;;33.01;24.80
33191;BME280;19554;42.652;23.364;2022-08-19T12:00:56;94285.44;;;33.08;24.59
33191;BME280;19554;42.652;23.364;2022-08-19T12:03:22;94281.06;;;33.23;24.90
33191;BME280;19554;42.652;23.364;2022-08-19T12:05:48;94277.72;;;33.03;24.65
33191;BME280;19554;42.652;23.364;2022-08-19T12:08:15;94271.09;;;33.13;24.76
33191;BME280;19554;42.652;23.364;2022-08-19T12:10:42;94273.94;;;33.22;24.77
33191;BME280;19554;42.652;23.364;2022-08-19T12:13:09;94270.00;;;33.23;24.47
33191;BME280;19554;42.652;23.364;2022-08-19T12:15:37;94263.88;;;33.29;24.25
33191;BME280;19554;42.652;23.364;2022-08-19T12:18:04;94264.13;;;33.34;24.50
33191;BME280;19554;42.652;23.364;2022-08-19T12:20:29;94256.13;;;33.36;24.75
33191;BME280;19554;42.652;23.364;2022-08-19T12:22:55;94257.38;;;33.48;24.18
33191;BME280;19554;42.652;23.364;2022-08-19T12:25:20;94250.09;;;33.54;24.29
33191;BME280;19554;42.652;23.364;2022-08-19T12:27:46;94244.53;;;33.54;24.25
33191;BME280;19554;42.652;23.364;2022-08-19T12:30:13;94187.00;;;33.23;24.31
33191;BME280;19554;42.652;23.364;2022-08-19T12:32:39;94243.84;;;33.63;24.44
33191;BME280;19554;42.652;23.364;2022-08-19T12:35:06;94239.44;;;33.65;24.63
33191;BME280;19554;42.652;23.364;2022-08-19T12:37:34;94180.00;;;33.32;24.43
33191;BME280;19554;42.652;23.364;2022-08-19T12:39:59;94236.41;;;33.72;24.06
33191;BME280;19554;42.652;23.364;2022-08-19T12:42:25;94233.53;;;33.76;24.13
33191;BME280;19554;42.652;23.364;2022-08-19T12:44:50;94234.59;;;33.91;23.89
33191;BME280;19554;42.652;23.364;2022-08-19T12:47:17;94233.81;;;33.91;24.16
33191;BME280;19554;42.652;23.364;2022-08-19T12:49:43;94217.88;;;33.95;24.22
33191;BME280;19554;42.652;23.364;2022-08-19T12:52:10;94226.91;;;34.08;23.81
33191;BME280;19554;42.652;23.364;2022-08-19T12:54:37;94231.56;;;34.11;23.89
33191;BME280;19554;42.652;23.364;2022-08-19T12:57:07;94210.41;;;34.05;23.90
33191;BME280;19554;42.652;23.364;2022-08-19T12:59:37;94225.13;;;34.14;23.64
33191;BME280;19554;42.652;23.364;2022-08-19T13:02:03;94218.47;;;34.12;23.54
33191;BME280;19554;42.652;23.364;2022-08-19T13:04:30;94221.97;;;34.03;23.82
33191;BME280;19554;42.652;23.364;2022-08-19T13:06:55;94213.41;;;34.10;23.43
33191;BME280;19554;42.652;23.364;2022-08-19T13:09:22;94219.19;;;34.03;23.82
33191;BME280;19554;42.652;23.364;2022-08-19T13:11:48;94209.66;;;33.91;24.02
33191;BME280;19554;42.652;23.364;2022-08-19T13:14:13;94219.91;;;33.82;23.89